sensor_id;sensor_type;location;lat;lon;timestamp;pressure;altitude;pressure_sealevel;temperature;humidity
41312;BME280;27061;41.648;24.568;2022-10-31T00:00:47;86342.47;;;12.54;54.08
41312;BME280;27061;41.648;24.568;2022-10-31T00:03:15;86337.09;;;12.39;54.25
41312;BME280;27061;41.648;24.568;2022-10-31T00:05:47;86279.13;;;12.09;54.61
41312;BME280;27061;41.648;24.568;2022-10-31T00:08:16;86308.00;;;12.32;54.78
41312;BME280;27061;41.648;24.568;2022-10-31T00:10:44;86304.59;;;12.28;54.50
41312;BME280;27061;41.648;24.568;2022-10-31T00:13:13;86297.03;;;12.22;54.38
41312;BME280;27061;41.648;24.568;2022-10-31T00:18:52;86331.47;;;12.43;54.61
41312;BME280;27061;41.648;24.568;2022-10-31T00:21:20;86332.84;;;12.44;54.50
41312;BME280;27061;41.648;24.568;2022-10-31T00:23:47;86338.91;;;12.61;55.36
41312;BME280;27061;41.648;24.568;2022-10-31T00:26:14;86326.63;;;12.44;55.02
41312;BME280;27061;41.648;24.568;2022-10-31T00:28:41;86324.50;;;12.46;54.75
41312;BME280;27061;41.648;24.568;2022-10-31T00:31:10;86298.41;;;12.21;55.23
41312;BME280;27061;41.648;24.568;2022-10-31T00:33:38;86330.06;;;12.46;55.41
41312;BME280;27061;41.648;24.568;2022-10-31T00:36:07;86333.50;;;12.49;54.97
41312;BME280;27061;41.648;24.568;2022-10-31T00:38:37;86314.97;;;12.31;55.23
41312;BME280;27061;41.648;24.568;2022-10-31T00:41:04;86316.94;;;12.41;55.02
41312;BME280;27061;41.648;24.568;2022-10-31T00:43:31;86312.03;;;12.43;55.14
41312;BME280;27061;41.648;24.568;2022-10-31T00:45:58;86336.84;;;12.60;55.35
41312;BME280;27061;41.648;24.568;2022-10-31T00:48:25;86307.97;;;12.36;54.95
41312;BME280;27061;41.648;24.568;2022-10-31T00:50:52;86286.56;;;12.29;55.43
41312;BME280;27061;41.648;24.568;2022-10-31T00:53:19;86289.31;;;12.29;55.00
41312;BME280;27061;41.648;24.568;2022-10-31T00:55:46;86332.66;;;12.61;55.07
41312;BME280;27061;41.648;24.568;2022-10-31T00:58:14;86294.16;;;12.30;55.12
41312;BME280;27061;41.648;24.568;2022-10-31T01:00:40;86330.66;;;12.55;55.53
41312;BME280;27061;41.648;24.568;2022-10-31T01:03:08;86306.56;;;12.39;55.63
41312;BME280;27061;41.648;24.568;2022-10-31T01:06:07;86330.63;;;12.57;55.44
41312;BME280;27061;41.648;24.568;2022-10-31T01:08:36;86318.31;;;12.42;55.62
41312;BME280;27061;41.648;24.568;2022-10-31T01:11:08;86331.31;;;12.60;55.42
41312;BME280;27061;41.648;24.568;2022-10-31T01:13:38;86330.09;;;12.42;55.41
41312;BME280;27061;41.648;24.568;2022-10-31T01:16:06;86327.16;;;12.57;55.30
41312;BME280;27061;41.648;24.568;2022-10-31T01:18:37;86309.84;;;12.52;55.18
41312;BME280;27061;41.648;24.568;2022-10-31T01:21:09;86323.56;;;12.66;55.07
41312;BME280;27061;41.648;24.568;2022-10-31T01:23:36;86328.47;;;12.64;55.26
41312;BME280;27061;41.648;24.568;2022-10-31T01:26:09;86307.06;;;12.54;54.91
41312;BME280;27061;41.648;24.568;2022-10-31T01:28:53;86291.16;;;12.49;54.72
41312;BME280;27061;41.648;24.568;2022-10-31T01:31:23;86330.53;;;12.63;54.92
41312;BME280;27061;41.648;24.568;2022-10-31T01:33:51;86292.81;;;12.27;55.50
41312;BME280;27061;41.648;24.568;2022-10-31T01:36:30;86277.66;;;12.18;55.47
41312;BME280;27061;41.648;24.568;2022-10-31T01:39:03;86318.06;;;12.62;55.14
41312;BME280;27061;41.648;24.568;2022-10-31T01:41:33;86313.28;;;12.55;55.16
41312;BME280;27061;41.648;24.568;2022-10-31T01:46:50;86313.16;;;12.67;54.97
41312;BME280;27061;41.648;24.568;2022-10-31T01:49:40;86321.50;;;12.65;54.96
41312;BME280;27061;41.648;24.568;2022-10-31T01:52:26;86304.84;;;12.65;54.73
41312;BME280;27061;41.648;24.568;2022-10-31T01:55:05;86315.94;;;12.65;55.10
41312;BME280;27061;41.648;24.568;2022-10-31T01:57:35;86305.56;;;12.61;54.53
41312;BME280;27061;41.648;24.568;2022-10-31T02:00:07;86280.22;;;12.34;54.84
41312;BME280;27061;41.648;24.568;2022-10-31T02:03:03;86292.50;;;12.52;55.02
41312;BME280;27061;41.648;24.568;2022-10-31T02:05:30;86300.09;;;12.55;54.90
41312;BME280;27061;41.648;24.568;2022-10-31T02:08:05;86290.38;;;12.54;54.60
41312;BME280;27061;41.648;24.568;2022-10-31T02:10:34;86299.31;;;12.61;54.61
41312;BME280;27061;41.648;24.568;2022-10-31T02:13:28;86308.84;;;12.76;54.60
41312;BME280;27061;41.648;24.568;2022-10-31T02:15:58;86318.59;;;12.75;54.39
41312;BME280;27061;41.648;24.568;2022-10-31T02:18:27;86299.16;;;12.73;54.18
41312;BME280;27061;41.648;24.568;2022-10-31T02:21:02;86316.50;;;12.75;54.25
41312;BME280;27061;41.648;24.568;2022-10-31T02:38:07;86324.31;;;12.63;54.43
41312;BME280;27061;41.648;24.568;2022-10-31T02:40:48;86294.69;;;12.45;54.62
41312;BME280;27061;41.648;24.568;2022-10-31T02:48:44;86337.06;;;12.41;55.14
41312;BME280;27061;41.648;24.568;2022-10-31T02:51:14;86344.56;;;12.51;55.36
41312;BME280;27061;41.648;24.568;2022-10-31T02:53:41;86335.63;;;12.44;55.20
41312;BME280;27061;41.648;24.568;2022-10-31T02:56:17;86320.38;;;12.41;55.33
41312;BME280;27061;41.648;24.568;2022-10-31T02:58:50;86341.75;;;12.55;55.44
41312;BME280;27061;41.648;24.568;2022-10-31T03:18:02;86343.75;;;12.63;55.76
41312;BME280;27061;41.648;24.568;2022-10-31T03:20:40;86345.00;;;12.72;55.77
41312;BME280;27061;41.648;24.568;2022-10-31T03:23:12;86345.78;;;12.68;55.77
41312;BME280;27061;41.648;24.568;2022-10-31T03:25:41;86347.84;;;12.68;56.18
41312;BME280;27061;41.648;24.568;2022-10-31T03:28:12;86327.09;;;12.61;56.06
41312;BME280;27061;41.648;24.568;2022-10-31T03:30:42;86344.38;;;12.69;56.11
41312;BME280;27061;41.648;24.568;2022-10-31T03:33:16;86348.47;;;12.74;55.98
41312;BME280;27061;41.648;24.568;2022-10-31T03:35:46;86343.56;;;12.77;55.99
41312;BME280;27061;41.648;24.568;2022-10-31T03:38:14;86343.56;;;12.77;56.02
41312;BME280;27061;41.648;24.568;2022-10-31T03:40:43;86333.88;;;12.76;55.83
41312;BME280;27061;41.648;24.568;2022-10-31T03:43:22;86342.09;;;12.84;55.77
41312;BME280;27061;41.648;24.568;2022-10-31T03:45:55;86343.44;;;12.89;55.47
41312;BME280;27061;41.648;24.568;2022-10-31T03:48:23;86345.50;;;12.89;55.53
41312;BME280;27061;41.648;24.568;2022-10-31T03:51:09;86349.03;;;12.85;55.77
41312;BME280;27061;41.648;24.568;2022-10-31T03:59:21;86313.94;;;12.59;55.77
41312;BME280;27061;41.648;24.568;2022-10-31T04:01:57;86312.56;;;12.58;55.84
41312;BME280;27061;41.648;24.568;2022-10-31T04:04:26;86304.91;;;12.59;55.57
41312;BME280;27061;41.648;24.568;2022-10-31T04:06:56;86310.44;;;12.61;55.44
41312;BME280;27061;41.648;24.568;2022-10-31T04:09:43;86343.47;;;12.85;55.97
41312;BME280;27061;41.648;24.568;2022-10-31T04:12:17;86321.59;;;12.57;56.11
41312;BME280;27061;41.648;24.568;2022-10-31T04:15:05;86358.75;;;12.84;55.91
41312;BME280;27061;41.648;24.568;2022-10-31T04:17:38;86322.47;;;12.43;56.66
41312;BME280;27061;41.648;24.568;2022-10-31T04:20:07;86296.22;;;12.30;56.52
41312;BME280;27061;41.648;24.568;2022-10-31T04:22:34;86335.50;;;12.55;56.92
41312;BME280;27061;41.648;24.568;2022-10-31T04:25:01;86358.25;;;12.69;56.74
41312;BME280;27061;41.648;24.568;2022-10-31T04:27:28;86329.97;;;12.53;56.38
41312;BME280;27061;41.648;24.568;2022-10-31T04:29:55;86338.28;;;12.57;57.05
41312;BME280;27061;41.648;24.568;2022-10-31T04:32:22;86324.63;;;12.38;57.27
41312;BME280;27061;41.648;24.568;2022-10-31T04:34:51;86333.50;;;12.49;57.08
41312;BME280;27061;41.648;24.568;2022-10-31T04:37:18;86364.53;;;12.66;57.27
41312;BME280;27061;41.648;24.568;2022-10-31T04:39:46;86380.50;;;12.67;57.48
41312;BME280;27061;41.648;24.568;2022-10-31T04:42:43;86366.75;;;12.55;58.01
41312;BME280;27061;41.648;24.568;2022-10-31T04:45:14;86371.59;;;12.57;58.15
41312;BME280;27061;41.648;24.568;2022-10-31T04:47:50;86343.41;;;12.34;58.10
41312;BME280;27061;41.648;24.568;2022-10-31T04:50:18;86366.09;;;12.51;57.91
41312;BME280;27061;41.648;24.568;2022-10-31T04:52:45;86339.97;;;12.29;58.07
41312;BME280;27061;41.648;24.568;2022-10-31T04:55:16;86335.16;;;12.28;58.24
41312;BME280;27061;41.648;24.568;2022-10-31T04:57:49;86361.34;;;12.43;58.08
41312;BME280;27061;41.648;24.568;2022-10-31T05:00:20;86375.78;;;12.56;57.70
41312;BME280;27061;41.648;24.568;2022-10-31T05:02:51;86382.66;;;12.61;57.28
41312;BME280;27061;41.648;24.568;2022-10-31T05:05:24;86386.16;;;12.59;57.12
41312;BME280;27061;41.648;24.568;2022-10-31T05:07:52;86368.94;;;12.46;57.18
41312;BME280;27061;41.648;24.568;2022-10-31T05:10:24;86344.16;;;12.28;56.84
41312;BME280;27061;41.648;24.568;2022-10-31T05:12:57;86364.06;;;12.47;57.25
41312;BME280;27061;41.648;24.568;2022-10-31T05:15:43;86368.28;;;12.42;57.36
41312;BME280;27061;41.648;24.568;2022-10-31T05:18:19;86383.41;;;12.57;56.92
41312;BME280;27061;41.648;24.568;2022-10-31T05:21:05;86391.66;;;12.61;56.99
41312;BME280;27061;41.648;24.568;2022-10-31T05:23:37;86409.66;;;12.68;56.77
41312;BME280;27061;41.648;24.568;2022-10-31T05:26:06;86411.06;;;12.67;56.91
41312;BME280;27061;41.648;24.568;2022-10-31T05:28:33;86413.16;;;12.65;57.01
41312;BME280;27061;41.648;24.568;2022-10-31T05:31:02;86393.91;;;12.49;56.73
41312;BME280;27061;41.648;24.568;2022-10-31T05:33:36;86410.28;;;12.73;57.46
41312;BME280;27061;41.648;24.568;2022-10-31T05:36:08;86413.06;;;12.75;57.93
41312;BME280;27061;41.648;24.568;2022-10-31T05:38:55;86417.88;;;12.78;57.71
41312;BME280;27061;41.648;24.568;2022-10-31T05:41:30;86373.22;;;12.35;58.22
41312;BME280;27061;41.648;24.568;2022-10-31T05:44:08;86416.59;;;12.69;58.40
41312;BME280;27061;41.648;24.568;2022-10-31T05:46:50;86412.38;;;12.74;58.38
41312;BME280;27061;41.648;24.568;2022-10-31T05:49:40;86424.84;;;12.75;58.64
41312;BME280;27061;41.648;24.568;2022-10-31T05:52:42;86420.19;;;12.58;59.73
41312;BME280;27061;41.648;24.568;2022-10-31T05:55:18;86438.13;;;12.69;59.27
41312;BME280;27061;41.648;24.568;2022-10-31T05:58:02;86440.94;;;12.67;60.07
41312;BME280;27061;41.648;24.568;2022-10-31T06:00:30;86410.50;;;12.53;59.84
41312;BME280;27061;41.648;24.568;2022-10-31T06:03:08;86445.13;;;12.62;60.20
41312;BME280;27061;41.648;24.568;2022-10-31T06:05:44;86426.47;;;12.54;60.04
41312;BME280;27061;41.648;24.568;2022-10-31T06:08:20;86421.72;;;12.42;60.29
41312;BME280;27061;41.648;24.568;2022-10-31T06:10:48;86453.44;;;12.64;60.26
41312;BME280;27061;41.648;24.568;2022-10-31T06:13:21;86355.66;;;11.88;60.45
41312;BME280;27061;41.648;24.568;2022-10-31T06:16:12;86446.56;;;12.59;60.54
41312;BME280;27061;41.648;24.568;2022-10-31T06:18:39;86450.63;;;12.70;60.30
41312;BME280;27061;41.648;24.568;2022-10-31T06:21:06;86461.78;;;12.66;60.63
41312;BME280;27061;41.648;24.568;2022-10-31T06:23:35;86461.78;;;12.66;60.72
41312;BME280;27061;41.648;24.568;2022-10-31T06:26:44;86425.84;;;12.50;61.00
41312;BME280;27061;41.648;24.568;2022-10-31T06:52:34;86441.94;;;13.00;61.31
41312;BME280;27061;41.648;24.568;2022-10-31T06:55:03;86422.66;;;12.86;60.83
41312;BME280;27061;41.648;24.568;2022-10-31T06:57:31;86439.06;;;13.06;60.85
41312;BME280;27061;41.648;24.568;2022-10-31T06:59:58;86357.72;;;12.57;60.35
41312;BME280;27061;41.648;24.568;2022-10-31T07:02:35;86451.28;;;13.34;60.31
41312;BME280;27061;41.648;24.568;2022-10-31T07:05:03;86409.13;;;13.15;59.60
41312;BME280;27061;41.648;24.568;2022-10-31T07:07:30;86443.44;;;13.46;59.34
41312;BME280;27061;41.648;24.568;2022-10-31T07:09:57;86426.06;;;13.48;58.82
41312;BME280;27061;41.648;24.568;2022-10-31T07:12:43;86413.63;;;13.43;59.46
41312;BME280;27061;41.648;24.568;2022-10-31T07:15:10;86452.75;;;13.78;59.07
41312;BME280;27061;41.648;24.568;2022-10-31T07:17:37;86410.69;;;13.53;57.93
41312;BME280;27061;41.648;24.568;2022-10-31T07:20:07;86453.22;;;13.95;58.18
41312;BME280;27061;41.648;24.568;2022-10-31T07:22:36;86455.31;;;13.94;58.21
41312;BME280;27061;41.648;24.568;2022-10-31T07:25:06;86422.75;;;13.84;57.62
41312;BME280;27061;41.648;24.568;2022-10-31T07:27:53;86428.22;;;13.90;57.37
41312;BME280;27061;41.648;24.568;2022-10-31T07:30:20;86447.47;;;14.07;58.48
41312;BME280;27061;41.648;24.568;2022-10-31T07:32:52;86393.69;;;13.75;58.93
41312;BME280;27061;41.648;24.568;2022-10-31T07:35:25;86447.19;;;14.25;58.90
41312;BME280;27061;41.648;24.568;2022-10-31T07:37:57;86446.97;;;14.39;57.67
41312;BME280;27061;41.648;24.568;2022-10-31T07:40:24;86452.34;;;14.51;57.45
41312;BME280;27061;41.648;24.568;2022-10-31T07:42:52;86453.50;;;14.64;56.92
41312;BME280;27061;41.648;24.568;2022-10-31T07:45:54;86448.69;;;14.61;56.71
41312;BME280;27061;41.648;24.568;2022-10-31T07:48:54;86461.63;;;14.79;57.23
41312;BME280;27061;41.648;24.568;2022-10-31T07:51:39;86454.59;;;14.82;57.00
41312;BME280;27061;41.648;24.568;2022-10-31T07:54:27;86449.47;;;14.94;55.67
41312;BME280;27061;41.648;24.568;2022-10-31T07:56:54;86448.63;;;15.04;57.32
41312;BME280;27061;41.648;24.568;2022-10-31T07:59:22;86458.16;;;15.15;54.71
41312;BME280;27061;41.648;24.568;2022-10-31T08:01:48;86446.31;;;15.15;55.00
41312;BME280;27061;41.648;24.568;2022-10-31T08:04:35;86448.09;;;15.30;56.06
41312;BME280;27061;41.648;24.568;2022-10-31T08:07:20;86449.09;;;15.50;54.76
41312;BME280;27061;41.648;24.568;2022-10-31T08:09:55;86437.28;;;15.47;53.70
41312;BME280;27061;41.648;24.568;2022-10-31T08:12:26;86431.59;;;15.55;53.18
41312;BME280;27061;41.648;24.568;2022-10-31T08:14:53;86451.84;;;15.87;53.27
41312;BME280;27061;41.648;24.568;2022-10-31T08:17:20;86412.53;;;15.66;53.53
41312;BME280;27061;41.648;24.568;2022-10-31T08:19:52;86468.63;;;16.18;52.35
41312;BME280;27061;41.648;24.568;2022-10-31T08:22:24;86466.31;;;16.26;53.00
41312;BME280;27061;41.648;24.568;2022-10-31T08:24:51;86410.44;;;15.97;52.22
41312;BME280;27061;41.648;24.568;2022-10-31T08:27:18;86467.22;;;16.47;51.81
41312;BME280;27061;41.648;24.568;2022-10-31T08:29:45;86452.41;;;16.53;50.63
41312;BME280;27061;41.648;24.568;2022-10-31T08:32:12;86478.56;;;16.72;51.28
41312;BME280;27061;41.648;24.568;2022-10-31T08:34:51;86471.28;;;16.83;51.43
41312;BME280;27061;41.648;24.568;2022-10-31T08:37:37;86468.28;;;16.92;50.35
41312;BME280;27061;41.648;24.568;2022-10-31T08:40:05;86468.06;;;17.00;49.81
41312;BME280;27061;41.648;24.568;2022-10-31T08:42:34;86445.97;;;16.90;49.14
41312;BME280;27061;41.648;24.568;2022-10-31T08:45:01;86457.53;;;17.02;49.47
41312;BME280;27061;41.648;24.568;2022-10-31T08:47:30;86457.91;;;17.15;49.29
41312;BME280;27061;41.648;24.568;2022-10-31T08:49:57;86465.81;;;17.33;49.06
41312;BME280;27061;41.648;24.568;2022-10-31T08:52:24;86482.06;;;17.53;48.93
41312;BME280;27061;41.648;24.568;2022-10-31T08:55:12;86477.63;;;17.63;48.61
41312;BME280;27061;41.648;24.568;2022-10-31T08:58:09;86483.00;;;17.71;48.63
41312;BME280;27061;41.648;24.568;2022-10-31T09:00:49;86471.50;;;17.81;48.33
41312;BME280;27061;41.648;24.568;2022-10-31T09:03:21;86479.56;;;17.93;47.92
41312;BME280;27061;41.648;24.568;2022-10-31T09:05:49;86480.59;;;18.06;46.90
41312;BME280;27061;41.648;24.568;2022-10-31T09:08:17;86484.59;;;18.13;47.16
41312;BME280;27061;41.648;24.568;2022-10-31T09:10:46;86455.78;;;17.92;47.17
41312;BME280;27061;41.648;24.568;2022-10-31T09:13:20;86489.97;;;18.21;46.57
41312;BME280;27061;41.648;24.568;2022-10-31T09:16:10;86462.53;;;18.01;46.91
41312;BME280;27061;41.648;24.568;2022-10-31T09:31:28;86483.56;;;18.25;44.54
41312;BME280;27061;41.648;24.568;2022-10-31T09:34:12;86466.66;;;18.04;45.55
41312;BME280;27061;41.648;24.568;2022-10-31T09:45:13;86471.66;;;18.24;46.56
41312;BME280;27061;41.648;24.568;2022-10-31T09:50:58;86448.44;;;18.28;44.29
41312;BME280;27061;41.648;24.568;2022-10-31T09:53:40;86479.34;;;18.49;45.08
41312;BME280;27061;41.648;24.568;2022-10-31T09:56:14;86458.03;;;18.35;45.38
41312;BME280;27061;41.648;24.568;2022-10-31T09:58:51;86455.91;;;18.36;45.02
41312;BME280;27061;41.648;24.568;2022-10-31T10:03:24;86485.91;;;18.64;45.94
41312;BME280;27061;41.648;24.568;2022-10-31T10:06:08;86464.59;;;18.50;45.04
41312;BME280;27061;41.648;24.568;2022-10-31T10:08:57;86483.19;;;18.62;46.14
41312;BME280;27061;41.648;24.568;2022-10-31T10:11:50;86481.75;;;18.63;44.92
41312;BME280;27061;41.648;24.568;2022-10-31T10:17:14;86481.22;;;18.79;44.92
41312;BME280;27061;41.648;24.568;2022-10-31T10:25:13;86467.19;;;19.02;42.54
41312;BME280;27061;41.648;24.568;2022-10-31T10:30:50;86457.53;;;19.18;41.95
41312;BME280;27061;41.648;24.568;2022-10-31T10:33:23;86463.56;;;19.26;42.63
41312;BME280;27061;41.648;24.568;2022-10-31T10:35:59;86444.81;;;19.21;42.71
41312;BME280;27061;41.648;24.568;2022-10-31T10:40:55;86440.09;;;19.36;43.15
41312;BME280;27061;41.648;24.568;2022-10-31T10:43:34;86461.88;;;19.56;39.58
41312;BME280;27061;41.648;24.568;2022-10-31T10:49:32;86378.06;;;19.23;38.29
41312;BME280;27061;41.648;24.568;2022-10-31T10:58:57;86370.53;;;18.97;38.48
41312;BME280;27061;41.648;24.568;2022-10-31T11:01:24;86455.84;;;19.68;39.35
41312;BME280;27061;41.648;24.568;2022-10-31T11:03:52;86424.63;;;19.58;38.97
41312;BME280;27061;41.648;24.568;2022-10-31T11:06:21;86458.28;;;19.79;38.98
41312;BME280;27061;41.648;24.568;2022-10-31T11:08:52;86459.56;;;19.82;39.09
41312;BME280;27061;41.648;24.568;2022-10-31T11:11:25;86453.81;;;19.86;39.23
41312;BME280;27061;41.648;24.568;2022-10-31T11:14:03;86455.88;;;19.87;39.30
41312;BME280;27061;41.648;24.568;2022-10-31T11:16:40;86444.94;;;19.79;38.30
41312;BME280;27061;41.648;24.568;2022-10-31T11:19:29;86456.69;;;19.84;39.30
41312;BME280;27061;41.648;24.568;2022-10-31T11:22:06;86417.41;;;19.42;38.84
41312;BME280;27061;41.648;24.568;2022-10-31T11:24:39;86461.31;;;19.72;39.03
41312;BME280;27061;41.648;24.568;2022-10-31T11:27:24;86450.97;;;19.67;40.77
41312;BME280;27061;41.648;24.568;2022-10-31T11:29:51;86444.88;;;19.60;40.17
41312;BME280;27061;41.648;24.568;2022-10-31T11:32:26;86437.28;;;19.57;38.32
41312;BME280;27061;41.648;24.568;2022-10-31T11:34:59;86446.47;;;19.55;39.64
41312;BME280;27061;41.648;24.568;2022-10-31T11:37:30;86433.88;;;19.54;37.94
41312;BME280;27061;41.648;24.568;2022-10-31T11:40:01;86444.81;;;19.62;40.18
41312;BME280;27061;41.648;24.568;2022-10-31T11:42:38;86435.09;;;19.59;41.08
41312;BME280;27061;41.648;24.568;2022-10-31T11:47:47;86451.94;;;19.59;38.87
41312;BME280;27061;41.648;24.568;2022-10-31T11:50:24;86460.16;;;19.65;38.48
41312;BME280;27061;41.648;24.568;2022-10-31T11:52:53;86451.78;;;19.63;38.29
41312;BME280;27061;41.648;24.568;2022-10-31T11:55:34;86449.72;;;19.62;36.12
41312;BME280;27061;41.648;24.568;2022-10-31T11:58:02;86450.41;;;19.62;38.90
41312;BME280;27061;41.648;24.568;2022-10-31T12:00:37;86448.84;;;19.67;39.77
41312;BME280;27061;41.648;24.568;2022-10-31T12:03:28;86448.56;;;19.76;38.57
41312;BME280;27061;41.648;24.568;2022-10-31T12:06:21;86439.47;;;19.54;35.89
41312;BME280;27061;41.648;24.568;2022-10-31T12:08:50;86457.13;;;19.51;36.79
41312;BME280;27061;41.648;24.568;2022-10-31T12:11:35;86430.09;;;19.20;37.56
41312;BME280;27061;41.648;24.568;2022-10-31T12:14:29;86457.81;;;19.51;36.82
41312;BME280;27061;41.648;24.568;2022-10-31T12:20:02;86401.13;;;19.05;38.28
41312;BME280;27061;41.648;24.568;2022-10-31T12:31:13;86472.47;;;19.33;36.73
41312;BME280;27061;41.648;24.568;2022-10-31T12:39:06;86472.88;;;19.21;39.82
41312;BME280;27061;41.648;24.568;2022-10-31T12:41:44;86479.91;;;19.20;40.00
41312;BME280;27061;41.648;24.568;2022-10-31T12:44:44;86474.38;;;19.18;39.96
41312;BME280;27061;41.648;24.568;2022-10-31T12:55:46;86468.59;;;19.01;40.08
41312;BME280;27061;41.648;24.568;2022-10-31T12:58:37;86482.53;;;19.05;40.20
41312;BME280;27061;41.648;24.568;2022-10-31T13:01:36;86472.16;;;18.99;39.76
41312;BME280;27061;41.648;24.568;2022-10-31T13:06:50;86488.88;;;19.04;40.26
41312;BME280;27061;41.648;24.568;2022-10-31T13:09:26;86487.50;;;19.02;40.48
41312;BME280;27061;41.648;24.568;2022-10-31T13:12:02;86480.78;;;18.93;40.70
41312;BME280;27061;41.648;24.568;2022-10-31T13:14:36;86457.78;;;18.66;41.41
41312;BME280;27061;41.648;24.568;2022-10-31T13:17:06;86462.34;;;18.78;41.18
41312;BME280;27061;41.648;24.568;2022-10-31T13:19:55;86477.91;;;18.95;40.44
41312;BME280;27061;41.648;24.568;2022-10-31T13:22:30;86483.53;;;18.95;40.82
41312;BME280;27061;41.648;24.568;2022-10-31T13:30:24;86482.66;;;18.78;39.40
41312;BME280;27061;41.648;24.568;2022-10-31T13:33:07;86480.00;;;18.74;40.62
41312;BME280;27061;41.648;24.568;2022-10-31T13:38:54;86449.94;;;18.48;40.85
41312;BME280;27061;41.648;24.568;2022-10-31T13:41:51;86469.38;;;18.77;39.72
41312;BME280;27061;41.648;24.568;2022-10-31T13:44:24;86423.97;;;18.26;40.67
41312;BME280;27061;41.648;24.568;2022-10-31T13:46:53;86474.06;;;18.61;41.41
41312;BME280;27061;41.648;24.568;2022-10-31T13:54:38;86474.91;;;18.56;42.17
41312;BME280;27061;41.648;24.568;2022-10-31T13:57:12;86472.06;;;18.58;42.13
41312;BME280;27061;41.648;24.568;2022-10-31T13:59:48;86481.91;;;18.57;42.11
41312;BME280;27061;41.648;24.568;2022-10-31T14:02:17;86482.72;;;18.53;42.26
41312;BME280;27061;41.648;24.568;2022-10-31T14:04:51;86483.63;;;18.46;41.92
41312;BME280;27061;41.648;24.568;2022-10-31T14:07:22;86475.16;;;18.48;42.38
41312;BME280;27061;41.648;24.568;2022-10-31T14:10:19;86479.66;;;18.39;42.71
41312;BME280;27061;41.648;24.568;2022-10-31T14:12:48;86453.59;;;18.19;42.35
41312;BME280;27061;41.648;24.568;2022-10-31T14:15:26;86469.25;;;18.35;42.85
41312;BME280;27061;41.648;24.568;2022-10-31T14:18:01;86453.97;;;18.07;43.01
41312;BME280;27061;41.648;24.568;2022-10-31T14:20:40;86476.09;;;18.17;42.71
41312;BME280;27061;41.648;24.568;2022-10-31T14:29:21;86469.44;;;18.04;43.04
41312;BME280;27061;41.648;24.568;2022-10-31T14:32:06;86438.19;;;17.71;42.96
41312;BME280;27061;41.648;24.568;2022-10-31T14:34:41;86485.53;;;18.06;42.88
41312;BME280;27061;41.648;24.568;2022-10-31T14:48:48;86493.88;;;17.83;44.41
41312;BME280;27061;41.648;24.568;2022-10-31T14:51:22;86474.69;;;17.69;44.23
41312;BME280;27061;41.648;24.568;2022-10-31T14:53:54;86451.84;;;17.58;44.21
41312;BME280;27061;41.648;24.568;2022-10-31T14:56:29;86487.75;;;17.76;44.24
41312;BME280;27061;41.648;24.568;2022-10-31T14:59:03;86478.91;;;17.68;44.38
41312;BME280;27061;41.648;24.568;2022-10-31T15:01:35;86489.75;;;17.80;44.14
41312;BME280;27061;41.648;24.568;2022-10-31T15:04:16;86490.03;;;17.70;44.69
41312;BME280;27061;41.648;24.568;2022-10-31T15:07:17;86489.97;;;17.72;44.51
41312;BME280;27061;41.648;24.568;2022-10-31T15:09:56;86488.03;;;17.66;44.58
41312;BME280;27061;41.648;24.568;2022-10-31T15:14:53;86457.47;;;17.31;45.13
41312;BME280;27061;41.648;24.568;2022-10-31T15:17:21;86460.44;;;17.25;45.32
41312;BME280;27061;41.648;24.568;2022-10-31T15:19:48;86483.69;;;17.44;45.44
41312;BME280;27061;41.648;24.568;2022-10-31T15:22:18;86482.38;;;17.41;45.54
41312;BME280;27061;41.648;24.568;2022-10-31T15:24:45;86500.53;;;17.42;45.77
41312;BME280;27061;41.648;24.568;2022-10-31T15:27:15;86504.78;;;17.41;45.54
41312;BME280;27061;41.648;24.568;2022-10-31T15:29:54;86494.69;;;17.26;45.65
41312;BME280;27061;41.648;24.568;2022-10-31T15:32:29;86478.88;;;17.16;46.07
41312;BME280;27061;41.648;24.568;2022-10-31T15:34:56;86503.81;;;17.24;46.29
41312;BME280;27061;41.648;24.568;2022-10-31T15:37:25;86507.28;;;17.27;46.42
41312;BME280;27061;41.648;24.568;2022-10-31T15:39:52;86507.34;;;17.23;46.43
41312;BME280;27061;41.648;24.568;2022-10-31T15:42:33;86484.81;;;17.02;46.61
41312;BME280;27061;41.648;24.568;2022-10-31T15:47:54;86513.94;;;17.11;46.64
41312;BME280;27061;41.648;24.568;2022-10-31T15:53:05;86482.34;;;16.88;46.63
41312;BME280;27061;41.648;24.568;2022-10-31T15:55:37;86489.28;;;16.91;46.78
41312;BME280;27061;41.648;24.568;2022-10-31T15:58:13;86496.28;;;16.90;46.81
41312;BME280;27061;41.648;24.568;2022-10-31T16:00:41;86482.72;;;16.73;46.80
41312;BME280;27061;41.648;24.568;2022-10-31T16:05:52;86517.09;;;16.97;46.66
41312;BME280;27061;41.648;24.568;2022-10-31T16:10:53;86527.06;;;16.90;47.01
41312;BME280;27061;41.648;24.568;2022-10-31T16:13:26;86527.09;;;16.88;47.15
41312;BME280;27061;41.648;24.568;2022-10-31T16:16:01;86530.63;;;16.86;46.99
41312;BME280;27061;41.648;24.568;2022-10-31T16:18:51;86529.44;;;16.77;46.83
41312;BME280;27061;41.648;24.568;2022-10-31T16:21:25;86540.34;;;16.89;47.03
41312;BME280;27061;41.648;24.568;2022-10-31T16:23:59;86529.44;;;16.77;46.85
41312;BME280;27061;41.648;24.568;2022-10-31T16:26:32;86504.00;;;16.58;46.94
41312;BME280;27061;41.648;24.568;2022-10-31T16:28:59;86493.22;;;16.42;46.97
41312;BME280;27061;41.648;24.568;2022-10-31T16:31:39;86542.69;;;16.78;46.83
41312;BME280;27061;41.648;24.568;2022-10-31T16:34:14;86504.53;;;16.36;47.19
41312;BME280;27061;41.648;24.568;2022-10-31T16:36:41;86519.78;;;16.41;47.01
41312;BME280;27061;41.648;24.568;2022-10-31T16:39:09;86551.31;;;16.68;47.17
41312;BME280;27061;41.648;24.568;2022-10-31T16:41:44;86552.78;;;16.65;47.04
41312;BME280;27061;41.648;24.568;2022-10-31T16:44:25;86557.06;;;16.62;46.85